Terminal Aerodrome Forecast
Issued by NWS

Home | Current Version | Previous Version | Graphics & Text | Print | Product List | Glossary On
Versions: 1 2 3 4 5 6 7 8 9 10 11 12 13 14
552
FTUS42 KMHX 261739
TAFISO
TAF
KISO 261739Z 2618/2718 23009KT P6SM FEW050 SCT250
     FM270000 21006KT P6SM SCT050 SCT200
      AMD LTD TO CLD VIS AND WIND=

USA.gov is the U.S. government's official web portal to all federal, state and local government web resources and services.